La Chute, Louisiana
Current Conditions -  °F | °C
As of 2:53 PM on Saturday 20 Dec 2014 (Local Time) from KDTN Reporting Station
Overcast Overcast  
Wind Chill: 45°   Ceiling: 700
Heat Index: 45°   Visibility: 8mi
Dew Point: 41°   Wind: 3mph
Humidity: 86%   Direction: 350°N
Pressure: 30.21"   Gusts: NA
Location:  32.5051°N, 93.7448°W
Report Text: KDTN 202053Z 35003KT 8SM OVC007 07/05 A3021 RMK AO2 SLP228 T00720050 58008
Loading
Personal Weather Stations






























Interactive Weather Map New forecast layout! Learn more

10-Day Weather Forecast

Advertisements
Track Severe Weather on mobile